sensor_id;sensor_type;location;lat;lon;timestamp;temperature;humidity
25250;DHT22;13201;51.148;13.738;2023-02-27T00:01:08;-1.10;99.90
25250;DHT22;13201;51.148;13.738;2023-02-27T00:03:34;-1.00;99.90
25250;DHT22;13201;51.148;13.738;2023-02-27T00:06:00;-1.00;99.90
25250;DHT22;13201;51.148;13.738;2023-02-27T00:08:25;-0.90;99.90
25250;DHT22;13201;51.148;13.738;2023-02-27T00:10:51;-1.00;99.90
25250;DHT22;13201;51.148;13.738;2023-02-27T00:13:18;-1.00;99.90
25250;DHT22;13201;51.148;13.738;2023-02-27T00:15:47;-1.00;99.90
25250;DHT22;13201;51.148;13.738;2023-02-27T00:18:14;-1.00;99.90
25250;DHT22;13201;51.148;13.738;2023-02-27T00:20:40;-1.20;99.90
25250;DHT22;13201;51.148;13.738;2023-02-27T00:23:07;-1.30;99.90
25250;DHT22;13201;51.148;13.738;2023-02-27T00:25:33;-1.20;99.90
25250;DHT22;13201;51.148;13.738;2023-02-27T00:27:59;-1.30;99.90
25250;DHT22;13201;51.148;13.738;2023-02-27T00:30:25;-1.30;99.90
25250;DHT22;13201;51.148;13.738;2023-02-27T00:32:52;-1.40;99.90
25250;DHT22;13201;51.148;13.738;2023-02-27T00:35:18;-1.30;99.90
25250;DHT22;13201;51.148;13.738;2023-02-27T00:37:44;-1.30;99.90
25250;DHT22;13201;51.148;13.738;2023-02-27T00:40:11;-1.40;99.90
25250;DHT22;13201;51.148;13.738;2023-02-27T00:42:37;-1.40;99.90
25250;DHT22;13201;51.148;13.738;2023-02-27T00:45:04;-1.40;99.90
25250;DHT22;13201;51.148;13.738;2023-02-27T00:47:30;-1.50;99.90
25250;DHT22;13201;51.148;13.738;2023-02-27T00:49:56;-1.60;99.90
25250;DHT22;13201;51.148;13.738;2023-02-27T00:52:22;-1.70;99.90
25250;DHT22;13201;51.148;13.738;2023-02-27T00:54:47;-2.00;99.90
25250;DHT22;13201;51.148;13.738;2023-02-27T00:57:13;-2.00;99.90
25250;DHT22;13201;51.148;13.738;2023-02-27T00:59:39;-2.00;99.90
25250;DHT22;13201;51.148;13.738;2023-02-27T01:02:05;-2.00;99.90
25250;DHT22;13201;51.148;13.738;2023-02-27T01:04:30;-2.00;99.90
25250;DHT22;13201;51.148;13.738;2023-02-27T01:30:57;-3.00;99.90
25250;DHT22;13201;51.148;13.738;2023-02-27T01:33:22;-3.10;99.90
25250;DHT22;13201;51.148;13.738;2023-02-27T01:35:48;-3.10;99.90
25250;DHT22;13201;51.148;13.738;2023-02-27T01:38:14;-3.10;99.90
25250;DHT22;13201;51.148;13.738;2023-02-27T01:40:41;-3.10;99.90
25250;DHT22;13201;51.148;13.738;2023-02-27T01:43:15;-3.10;99.90
25250;DHT22;13201;51.148;13.738;2023-02-27T01:45:42;-3.00;99.90
25250;DHT22;13201;51.148;13.738;2023-02-27T01:48:30;-2.80;99.90
25250;DHT22;13201;51.148;13.738;2023-02-27T01:51:07;-2.70;99.90
25250;DHT22;13201;51.148;13.738;2023-02-27T01:53:35;-2.70;99.90
25250;DHT22;13201;51.148;13.738;2023-02-27T01:56:08;-2.70;99.90
25250;DHT22;13201;51.148;13.738;2023-02-27T01:58:36;-2.60;99.90
25250;DHT22;13201;51.148;13.738;2023-02-27T02:01:02;-2.50;99.90
25250;DHT22;13201;51.148;13.738;2023-02-27T02:06:02;-2.50;99.90
25250;DHT22;13201;51.148;13.738;2023-02-27T02:08:33;-2.40;99.90
25250;DHT22;13201;51.148;13.738;2023-02-27T02:11:00;-2.50;99.90
25250;DHT22;13201;51.148;13.738;2023-02-27T02:13:26;-2.40;99.90
25250;DHT22;13201;51.148;13.738;2023-02-27T02:19:17;-2.40;99.90
25250;DHT22;13201;51.148;13.738;2023-02-27T02:41:07;-2.50;99.90
25250;DHT22;13201;51.148;13.738;2023-02-27T02:43:50;-2.60;99.90
25250;DHT22;13201;51.148;13.738;2023-02-27T02:52:01;-2.50;99.90
25250;DHT22;13201;51.148;13.738;2023-02-27T02:54:33;-2.50;99.90
25250;DHT22;13201;51.148;13.738;2023-02-27T02:57:26;-2.40;99.90
25250;DHT22;13201;51.148;13.738;2023-02-27T03:00:16;-2.30;99.90
25250;DHT22;13201;51.148;13.738;2023-02-27T03:02:58;-2.30;99.90
25250;DHT22;13201;51.148;13.738;2023-02-27T03:05:34;-2.20;99.90
25250;DHT22;13201;51.148;13.738;2023-02-27T03:08:07;-2.10;99.90
25250;DHT22;13201;51.148;13.738;2023-02-27T03:10:47;-2.10;99.90
25250;DHT22;13201;51.148;13.738;2023-02-27T03:13:21;-2.00;99.90
25250;DHT22;13201;51.148;13.738;2023-02-27T03:16:06;-2.00;99.90
25250;DHT22;13201;51.148;13.738;2023-02-27T03:18:42;-1.90;99.90
25250;DHT22;13201;51.148;13.738;2023-02-27T03:21:14;-1.90;99.90
25250;DHT22;13201;51.148;13.738;2023-02-27T03:23:45;-1.80;99.90
25250;DHT22;13201;51.148;13.738;2023-02-27T03:26:16;-1.80;99.90
25250;DHT22;13201;51.148;13.738;2023-02-27T03:29:05;-1.80;99.90
25250;DHT22;13201;51.148;13.738;2023-02-27T03:31:55;-1.70;99.90
25250;DHT22;13201;51.148;13.738;2023-02-27T03:34:33;-1.70;99.90
25250;DHT22;13201;51.148;13.738;2023-02-27T03:39:46;-1.60;99.90
25250;DHT22;13201;51.148;13.738;2023-02-27T03:47:39;-1.60;99.90
25250;DHT22;13201;51.148;13.738;2023-02-27T03:50:05;-1.50;99.90
25250;DHT22;13201;51.148;13.738;2023-02-27T03:52:31;-1.50;99.90
25250;DHT22;13201;51.148;13.738;2023-02-27T03:55:10;-1.40;99.90
25250;DHT22;13201;51.148;13.738;2023-02-27T03:57:39;-1.40;99.90
25250;DHT22;13201;51.148;13.738;2023-02-27T04:00:07;-1.40;99.90
25250;DHT22;13201;51.148;13.738;2023-02-27T04:02:34;-1.40;99.90
25250;DHT22;13201;51.148;13.738;2023-02-27T04:05:00;-1.40;99.90
25250;DHT22;13201;51.148;13.738;2023-02-27T04:19:37;-1.30;99.90
25250;DHT22;13201;51.148;13.738;2023-02-27T04:27:56;-1.30;99.90
25250;DHT22;13201;51.148;13.738;2023-02-27T04:33:06;-1.20;99.90
25250;DHT22;13201;51.148;13.738;2023-02-27T04:35:55;-1.20;99.90
25250;DHT22;13201;51.148;13.738;2023-02-27T04:41:12;-1.00;99.90
25250;DHT22;13201;51.148;13.738;2023-02-27T04:43:40;-1.00;99.90
25250;DHT22;13201;51.148;13.738;2023-02-27T04:46:09;-0.90;99.90
25250;DHT22;13201;51.148;13.738;2023-02-27T04:48:47;-0.90;99.90
25250;DHT22;13201;51.148;13.738;2023-02-27T04:51:20;-0.90;99.90
25250;DHT22;13201;51.148;13.738;2023-02-27T04:54:00;-1.20;99.90
25250;DHT22;13201;51.148;13.738;2023-02-27T04:56:32;-1.20;99.90
25250;DHT22;13201;51.148;13.738;2023-02-27T04:59:07;-1.30;99.90
25250;DHT22;13201;51.148;13.738;2023-02-27T05:01:40;-1.10;99.90
25250;DHT22;13201;51.148;13.738;2023-02-27T05:04:10;-1.00;99.90
25250;DHT22;13201;51.148;13.738;2023-02-27T05:06:40;-1.00;99.90
25250;DHT22;13201;51.148;13.738;2023-02-27T05:09:29;-0.80;99.90
25250;DHT22;13201;51.148;13.738;2023-02-27T05:14:57;-0.90;99.90
25250;DHT22;13201;51.148;13.738;2023-02-27T05:18:03;-1.00;99.90
25250;DHT22;13201;51.148;13.738;2023-02-27T05:20:56;-0.90;99.90
25250;DHT22;13201;51.148;13.738;2023-02-27T05:23:35;-0.90;99.90
25250;DHT22;13201;51.148;13.738;2023-02-27T05:26:08;-0.90;99.90
25250;DHT22;13201;51.148;13.738;2023-02-27T05:28:44;-1.00;99.90
25250;DHT22;13201;51.148;13.738;2023-02-27T05:31:27;-0.90;99.90
25250;DHT22;13201;51.148;13.738;2023-02-27T05:33:56;-0.90;99.90
25250;DHT22;13201;51.148;13.738;2023-02-27T05:39:04;-0.70;99.90
25250;DHT22;13201;51.148;13.738;2023-02-27T05:41:42;-0.80;99.90
25250;DHT22;13201;51.148;13.738;2023-02-27T05:44:16;-0.80;99.90
25250;DHT22;13201;51.148;13.738;2023-02-27T05:46:56;-0.80;99.90
25250;DHT22;13201;51.148;13.738;2023-02-27T05:51:56;-0.80;99.90
25250;DHT22;13201;51.148;13.738;2023-02-27T05:57:06;-0.80;99.90
25250;DHT22;13201;51.148;13.738;2023-02-27T05:59:46;-0.80;99.90
25250;DHT22;13201;51.148;13.738;2023-02-27T06:02:14;-0.70;99.90
25250;DHT22;13201;51.148;13.738;2023-02-27T06:04:40;-0.70;99.90
25250;DHT22;13201;51.148;13.738;2023-02-27T06:07:06;-0.80;99.90
25250;DHT22;13201;51.148;13.738;2023-02-27T06:09:32;-0.80;99.90
25250;DHT22;13201;51.148;13.738;2023-02-27T06:11:59;-0.70;99.90
25250;DHT22;13201;51.148;13.738;2023-02-27T06:14:26;-0.80;99.90
25250;DHT22;13201;51.148;13.738;2023-02-27T06:16:51;-0.70;99.90
25250;DHT22;13201;51.148;13.738;2023-02-27T06:19:17;-0.60;99.90
25250;DHT22;13201;51.148;13.738;2023-02-27T06:21:43;-0.50;99.90
25250;DHT22;13201;51.148;13.738;2023-02-27T06:24:08;-0.50;99.90
25250;DHT22;13201;51.148;13.738;2023-02-27T06:26:34;-0.60;99.90
25250;DHT22;13201;51.148;13.738;2023-02-27T06:29:00;-0.60;99.90
25250;DHT22;13201;51.148;13.738;2023-02-27T06:31:25;-0.70;99.90
25250;DHT22;13201;51.148;13.738;2023-02-27T06:33:51;-0.80;99.90
25250;DHT22;13201;51.148;13.738;2023-02-27T06:36:17;-0.80;99.90
25250;DHT22;13201;51.148;13.738;2023-02-27T06:38:42;-0.70;99.90
25250;DHT22;13201;51.148;13.738;2023-02-27T06:41:08;-0.60;99.90
25250;DHT22;13201;51.148;13.738;2023-02-27T06:43:34;-0.40;99.90
25250;DHT22;13201;51.148;13.738;2023-02-27T06:46:01;-0.40;99.90
25250;DHT22;13201;51.148;13.738;2023-02-27T06:48:27;-0.40;99.90
25250;DHT22;13201;51.148;13.738;2023-02-27T06:50:54;-0.40;99.90
25250;DHT22;13201;51.148;13.738;2023-02-27T06:53:21;-0.40;99.90
25250;DHT22;13201;51.148;13.738;2023-02-27T06:55:47;-0.30;99.90
25250;DHT22;13201;51.148;13.738;2023-02-27T06:58:14;-0.30;99.90
25250;DHT22;13201;51.148;13.738;2023-02-27T07:00:40;-0.40;99.90
25250;DHT22;13201;51.148;13.738;2023-02-27T07:03:06;-0.30;99.90
25250;DHT22;13201;51.148;13.738;2023-02-27T07:05:32;-0.20;99.90
25250;DHT22;13201;51.148;13.738;2023-02-27T07:07:57;-0.20;99.90
25250;DHT22;13201;51.148;13.738;2023-02-27T07:10:24;-0.10;99.90
25250;DHT22;13201;51.148;13.738;2023-02-27T07:12:49;-0.10;99.90
25250;DHT22;13201;51.148;13.738;2023-02-27T07:15:15;-0.10;99.90
25250;DHT22;13201;51.148;13.738;2023-02-27T07:17:41;-0.10;99.90
25250;DHT22;13201;51.148;13.738;2023-02-27T07:20:08;-0.20;99.90
25250;DHT22;13201;51.148;13.738;2023-02-27T07:22:35;-0.10;99.90
25250;DHT22;13201;51.148;13.738;2023-02-27T07:25:02;0.00;99.90
25250;DHT22;13201;51.148;13.738;2023-02-27T07:27:28;0.10;99.90
25250;DHT22;13201;51.148;13.738;2023-02-27T07:29:53;0.20;99.90
25250;DHT22;13201;51.148;13.738;2023-02-27T07:32:19;0.20;99.90
25250;DHT22;13201;51.148;13.738;2023-02-27T07:34:45;0.30;99.90
25250;DHT22;13201;51.148;13.738;2023-02-27T07:37:10;0.20;99.90
25250;DHT22;13201;51.148;13.738;2023-02-27T07:39:36;0.40;99.90
25250;DHT22;13201;51.148;13.738;2023-02-27T07:42:02;0.30;99.90
25250;DHT22;13201;51.148;13.738;2023-02-27T07:44:28;0.40;99.90
25250;DHT22;13201;51.148;13.738;2023-02-27T07:46:53;0.50;99.90
25250;DHT22;13201;51.148;13.738;2023-02-27T07:49:19;0.60;99.90
25250;DHT22;13201;51.148;13.738;2023-02-27T07:51:44;0.50;99.90
25250;DHT22;13201;51.148;13.738;2023-02-27T07:54:10;0.50;99.90
25250;DHT22;13201;51.148;13.738;2023-02-27T07:56:36;0.50;99.90
25250;DHT22;13201;51.148;13.738;2023-02-27T07:59:02;0.60;99.90
25250;DHT22;13201;51.148;13.738;2023-02-27T08:01:27;0.60;99.90
25250;DHT22;13201;51.148;13.738;2023-02-27T08:03:54;0.50;99.90
25250;DHT22;13201;51.148;13.738;2023-02-27T08:06:21;0.60;99.90
25250;DHT22;13201;51.148;13.738;2023-02-27T08:08:46;0.60;99.90
25250;DHT22;13201;51.148;13.738;2023-02-27T08:11:12;0.60;99.90
25250;DHT22;13201;51.148;13.738;2023-02-27T08:13:37;0.80;99.90
25250;DHT22;13201;51.148;13.738;2023-02-27T08:16:03;0.70;99.90
25250;DHT22;13201;51.148;13.738;2023-02-27T08:18:29;0.90;99.90
25250;DHT22;13201;51.148;13.738;2023-02-27T08:20:55;0.80;99.90
25250;DHT22;13201;51.148;13.738;2023-02-27T08:23:21;0.80;99.90
25250;DHT22;13201;51.148;13.738;2023-02-27T08:25:48;1.00;99.90
25250;DHT22;13201;51.148;13.738;2023-02-27T08:28:14;1.00;99.90
25250;DHT22;13201;51.148;13.738;2023-02-27T08:30:39;0.90;99.90
25250;DHT22;13201;51.148;13.738;2023-02-27T08:33:05;1.00;99.90
25250;DHT22;13201;51.148;13.738;2023-02-27T08:35:31;1.00;99.90
25250;DHT22;13201;51.148;13.738;2023-02-27T08:37:56;1.00;99.90
25250;DHT22;13201;51.148;13.738;2023-02-27T08:40:22;1.10;99.90
25250;DHT22;13201;51.148;13.738;2023-02-27T08:42:48;1.10;99.90
25250;DHT22;13201;51.148;13.738;2023-02-27T08:45:16;1.20;99.90
25250;DHT22;13201;51.148;13.738;2023-02-27T08:47:43;1.20;99.90
25250;DHT22;13201;51.148;13.738;2023-02-27T08:50:10;1.30;99.90
25250;DHT22;13201;51.148;13.738;2023-02-27T08:52:37;1.40;99.90
25250;DHT22;13201;51.148;13.738;2023-02-27T08:55:03;1.40;99.90
25250;DHT22;13201;51.148;13.738;2023-02-27T08:57:29;1.50;99.90
25250;DHT22;13201;51.148;13.738;2023-02-27T08:59:55;1.60;99.90
25250;DHT22;13201;51.148;13.738;2023-02-27T09:02:21;1.70;99.90
25250;DHT22;13201;51.148;13.738;2023-02-27T09:04:51;1.80;99.90
25250;DHT22;13201;51.148;13.738;2023-02-27T09:07:17;1.60;99.90
25250;DHT22;13201;51.148;13.738;2023-02-27T09:09:42;1.70;99.90
25250;DHT22;13201;51.148;13.738;2023-02-27T09:12:09;1.90;99.90
25250;DHT22;13201;51.148;13.738;2023-02-27T09:14:35;2.00;99.90
25250;DHT22;13201;51.148;13.738;2023-02-27T09:17:01;2.10;99.90
25250;DHT22;13201;51.148;13.738;2023-02-27T09:19:27;2.00;99.90
25250;DHT22;13201;51.148;13.738;2023-02-27T09:21:53;2.20;99.90
25250;DHT22;13201;51.148;13.738;2023-02-27T09:24:19;2.10;99.90
25250;DHT22;13201;51.148;13.738;2023-02-27T09:26:44;2.00;99.90
25250;DHT22;13201;51.148;13.738;2023-02-27T09:29:10;2.20;99.90
25250;DHT22;13201;51.148;13.738;2023-02-27T09:31:36;2.20;99.90
25250;DHT22;13201;51.148;13.738;2023-02-27T09:34:01;2.30;99.90
25250;DHT22;13201;51.148;13.738;2023-02-27T09:36:27;2.50;99.90
25250;DHT22;13201;51.148;13.738;2023-02-27T09:38:53;2.40;99.90
25250;DHT22;13201;51.148;13.738;2023-02-27T09:43:56;2.50;99.90
25250;DHT22;13201;51.148;13.738;2023-02-27T09:46:22;2.30;99.90
25250;DHT22;13201;51.148;13.738;2023-02-27T09:48:52;2.40;99.90
25250;DHT22;13201;51.148;13.738;2023-02-27T09:51:19;2.40;99.90
25250;DHT22;13201;51.148;13.738;2023-02-27T09:53:47;2.50;99.90
25250;DHT22;13201;51.148;13.738;2023-02-27T09:56:27;2.50;99.90
25250;DHT22;13201;51.148;13.738;2023-02-27T10:01:35;2.50;99.90
25250;DHT22;13201;51.148;13.738;2023-02-27T10:07:08;2.30;99.90
25250;DHT22;13201;51.148;13.738;2023-02-27T10:15:30;2.40;99.90
25250;DHT22;13201;51.148;13.738;2023-02-27T10:18:06;2.40;99.90
25250;DHT22;13201;51.148;13.738;2023-02-27T10:20:36;2.20;99.90
25250;DHT22;13201;51.148;13.738;2023-02-27T10:23:10;2.30;99.90
25250;DHT22;13201;51.148;13.738;2023-02-27T10:25:43;2.40;99.90
25250;DHT22;13201;51.148;13.738;2023-02-27T10:28:15;2.40;99.90
25250;DHT22;13201;51.148;13.738;2023-02-27T10:30:45;2.30;99.90
25250;DHT22;13201;51.148;13.738;2023-02-27T10:33:34;2.20;99.90
25250;DHT22;13201;51.148;13.738;2023-02-27T10:36:01;2.30;99.90
25250;DHT22;13201;51.148;13.738;2023-02-27T10:40:57;2.40;99.90
25250;DHT22;13201;51.148;13.738;2023-02-27T10:43:23;2.60;99.90
25250;DHT22;13201;51.148;13.738;2023-02-27T10:45:49;2.90;99.90
25250;DHT22;13201;51.148;13.738;2023-02-27T10:48:15;3.00;99.90
25250;DHT22;13201;51.148;13.738;2023-02-27T10:50:46;3.00;99.90
25250;DHT22;13201;51.148;13.738;2023-02-27T10:53:24;3.00;99.90
25250;DHT22;13201;51.148;13.738;2023-02-27T10:56:04;2.90;99.90
25250;DHT22;13201;51.148;13.738;2023-02-27T10:58:35;2.90;99.90
25250;DHT22;13201;51.148;13.738;2023-02-27T11:01:07;3.10;99.90
25250;DHT22;13201;51.148;13.738;2023-02-27T11:03:38;3.30;99.90
25250;DHT22;13201;51.148;13.738;2023-02-27T11:06:12;3.00;99.90
25250;DHT22;13201;51.148;13.738;2023-02-27T11:09:11;3.10;99.90
25250;DHT22;13201;51.148;13.738;2023-02-27T11:11:37;3.30;99.90
25250;DHT22;13201;51.148;13.738;2023-02-27T11:14:30;3.50;99.90
25250;DHT22;13201;51.148;13.738;2023-02-27T11:17:01;3.40;99.90
25250;DHT22;13201;51.148;13.738;2023-02-27T11:19:35;3.50;99.90
25250;DHT22;13201;51.148;13.738;2023-02-27T11:24:39;3.80;99.90
25250;DHT22;13201;51.148;13.738;2023-02-27T11:29:59;3.80;99.90
25250;DHT22;13201;51.148;13.738;2023-02-27T11:32:45;4.00;99.90
25250;DHT22;13201;51.148;13.738;2023-02-27T11:35:25;4.10;99.90
25250;DHT22;13201;51.148;13.738;2023-02-27T11:37:54;4.00;99.90
25250;DHT22;13201;51.148;13.738;2023-02-27T11:40:23;3.80;99.90
25250;DHT22;13201;51.148;13.738;2023-02-27T11:42:51;3.70;99.90
25250;DHT22;13201;51.148;13.738;2023-02-27T11:47:53;3.40;99.90
25250;DHT22;13201;51.148;13.738;2023-02-27T11:50:38;3.20;99.90
25250;DHT22;13201;51.148;13.738;2023-02-27T11:55:46;3.20;99.90
25250;DHT22;13201;51.148;13.738;2023-02-27T11:58:20;3.20;99.90
25250;DHT22;13201;51.148;13.738;2023-02-27T12:00:54;3.30;99.90
25250;DHT22;13201;51.148;13.738;2023-02-27T12:06:04;3.50;99.90
25250;DHT22;13201;51.148;13.738;2023-02-27T12:08:33;3.60;99.90
25250;DHT22;13201;51.148;13.738;2023-02-27T12:11:04;3.70;99.90
25250;DHT22;13201;51.148;13.738;2023-02-27T12:13:35;3.70;99.90
25250;DHT22;13201;51.148;13.738;2023-02-27T12:16:15;3.30;99.90
25250;DHT22;13201;51.148;13.738;2023-02-27T12:21:24;3.30;99.90
25250;DHT22;13201;51.148;13.738;2023-02-27T12:26:46;3.00;99.90
25250;DHT22;13201;51.148;13.738;2023-02-27T12:30:28;3.30;99.90
25250;DHT22;13201;51.148;13.738;2023-02-27T12:32:56;3.40;99.90
25250;DHT22;13201;51.148;13.738;2023-02-27T12:35:29;3.40;99.90
25250;DHT22;13201;51.148;13.738;2023-02-27T12:37:56;3.60;99.90
25250;DHT22;13201;51.148;13.738;2023-02-27T12:40:29;3.50;99.90
25250;DHT22;13201;51.148;13.738;2023-02-27T12:45:54;3.70;99.90
25250;DHT22;13201;51.148;13.738;2023-02-27T12:48:28;3.80;99.90
25250;DHT22;13201;51.148;13.738;2023-02-27T12:56:59;3.60;99.90
25250;DHT22;13201;51.148;13.738;2023-02-27T12:59:39;4.00;99.90
25250;DHT22;13201;51.148;13.738;2023-02-27T13:18:55;5.00;99.90
25250;DHT22;13201;51.148;13.738;2023-02-27T13:21:28;5.00;99.90
25250;DHT22;13201;51.148;13.738;2023-02-27T13:26:43;5.20;99.90
25250;DHT22;13201;51.148;13.738;2023-02-27T13:29:13;5.00;99.90
25250;DHT22;13201;51.148;13.738;2023-02-27T13:34:40;4.90;99.90
25250;DHT22;13201;51.148;13.738;2023-02-27T13:37:09;4.80;99.90
25250;DHT22;13201;51.148;13.738;2023-02-27T13:44:56;4.60;99.90
25250;DHT22;13201;51.148;13.738;2023-02-27T13:50:01;4.70;99.90
25250;DHT22;13201;51.148;13.738;2023-02-27T13:52:36;4.80;99.90
25250;DHT22;13201;51.148;13.738;2023-02-27T13:55:06;5.00;99.90
25250;DHT22;13201;51.148;13.738;2023-02-27T13:57:34;5.10;99.90
25250;DHT22;13201;51.148;13.738;2023-02-27T14:02:43;5.40;99.90
25250;DHT22;13201;51.148;13.738;2023-02-27T14:05:12;5.20;99.90
25250;DHT22;13201;51.148;13.738;2023-02-27T14:07:54;5.00;99.90
25250;DHT22;13201;51.148;13.738;2023-02-27T14:10:27;4.90;99.90
25250;DHT22;13201;51.148;13.738;2023-02-27T14:12:54;4.80;99.90
25250;DHT22;13201;51.148;13.738;2023-02-27T14:17:55;4.90;99.90
25250;DHT22;13201;51.148;13.738;2023-02-27T14:26:21;4.60;99.90
25250;DHT22;13201;51.148;13.738;2023-02-27T14:28:52;4.70;99.90
25250;DHT22;13201;51.148;13.738;2023-02-27T14:33:50;4.70;99.90
25250;DHT22;13201;51.148;13.738;2023-02-27T14:36:25;4.70;99.90
25250;DHT22;13201;51.148;13.738;2023-02-27T14:38:59;4.70;99.90
25250;DHT22;13201;51.148;13.738;2023-02-27T14:41:50;4.20;99.90
25250;DHT22;13201;51.148;13.738;2023-02-27T14:44:20;4.40;99.90
25250;DHT22;13201;51.148;13.738;2023-02-27T14:46:48;4.30;99.90
25250;DHT22;13201;51.148;13.738;2023-02-27T14:49:24;4.40;99.90
25250;DHT22;13201;51.148;13.738;2023-02-27T14:51:50;4.20;99.90
25250;DHT22;13201;51.148;13.738;2023-02-27T14:57:00;4.00;99.90
25250;DHT22;13201;51.148;13.738;2023-02-27T14:59:30;3.90;99.90
25250;DHT22;13201;51.148;13.738;2023-02-27T15:01:58;3.90;99.90
25250;DHT22;13201;51.148;13.738;2023-02-27T15:04:27;3.90;99.90
25250;DHT22;13201;51.148;13.738;2023-02-27T15:06:55;4.10;99.90
25250;DHT22;13201;51.148;13.738;2023-02-27T15:09:40;4.00;99.90
25250;DHT22;13201;51.148;13.738;2023-02-27T15:12:09;3.90;99.90
25250;DHT22;13201;51.148;13.738;2023-02-27T15:14:40;3.60;99.90
25250;DHT22;13201;51.148;13.738;2023-02-27T15:17:22;3.80;99.90
25250;DHT22;13201;51.148;13.738;2023-02-27T15:19:57;3.80;99.90
25250;DHT22;13201;51.148;13.738;2023-02-27T15:22:28;3.30;99.90
25250;DHT22;13201;51.148;13.738;2023-02-27T15:24:57;3.30;99.90
25250;DHT22;13201;51.148;13.738;2023-02-27T15:27:29;3.30;99.90
25250;DHT22;13201;51.148;13.738;2023-02-27T15:29:57;3.10;99.90
25250;DHT22;13201;51.148;13.738;2023-02-27T15:32:37;3.30;99.90
25250;DHT22;13201;51.148;13.738;2023-02-27T15:35:31;3.00;99.90
25250;DHT22;13201;51.148;13.738;2023-02-27T15:37:59;3.10;99.90
25250;DHT22;13201;51.148;13.738;2023-02-27T15:40:31;3.20;99.90
25250;DHT22;13201;51.148;13.738;2023-02-27T15:42:58;3.30;99.90
25250;DHT22;13201;51.148;13.738;2023-02-27T15:45:28;3.20;99.90
25250;DHT22;13201;51.148;13.738;2023-02-27T15:47:55;3.40;99.90
25250;DHT22;13201;51.148;13.738;2023-02-27T15:53:19;3.50;99.90
25250;DHT22;13201;51.148;13.738;2023-02-27T15:55:59;3.70;99.90
25250;DHT22;13201;51.148;13.738;2023-02-27T15:58:37;3.70;99.90
25250;DHT22;13201;51.148;13.738;2023-02-27T16:01:12;3.80;99.90
25250;DHT22;13201;51.148;13.738;2023-02-27T16:03:43;3.80;99.90
25250;DHT22;13201;51.148;13.738;2023-02-27T16:08:57;3.80;99.90
25250;DHT22;13201;51.148;13.738;2023-02-27T16:11:34;3.70;99.90
25250;DHT22;13201;51.148;13.738;2023-02-27T16:14:00;3.80;99.90
25250;DHT22;13201;51.148;13.738;2023-02-27T16:16:36;3.90;99.90
25250;DHT22;13201;51.148;13.738;2023-02-27T16:19:23;3.90;99.90
25250;DHT22;13201;51.148;13.738;2023-02-27T16:24:37;3.90;99.90
25250;DHT22;13201;51.148;13.738;2023-02-27T16:27:03;3.90;99.90
25250;DHT22;13201;51.148;13.738;2023-02-27T16:29:35;3.90;99.90
25250;DHT22;13201;51.148;13.738;2023-02-27T16:32:04;3.60;99.90
25250;DHT22;13201;51.148;13.738;2023-02-27T16:36:57;3.70;99.90
25250;DHT22;13201;51.148;13.738;2023-02-27T16:39:23;3.70;99.90
25250;DHT22;13201;51.148;13.738;2023-02-27T16:41:54;3.60;99.90
25250;DHT22;13201;51.148;13.738;2023-02-27T16:44:21;3.60;99.90
25250;DHT22;13201;51.148;13.738;2023-02-27T16:46:52;3.50;99.90
25250;DHT22;13201;51.148;13.738;2023-02-27T16:49:29;3.30;99.90
25250;DHT22;13201;51.148;13.738;2023-02-27T16:51:55;3.50;99.90
25250;DHT22;13201;51.148;13.738;2023-02-27T16:54:21;3.50;99.90
25250;DHT22;13201;51.148;13.738;2023-02-27T16:56:48;3.60;99.90
25250;DHT22;13201;51.148;13.738;2023-02-27T17:01:58;3.50;99.90
25250;DHT22;13201;51.148;13.738;2023-02-27T17:04:25;3.50;99.90
25250;DHT22;13201;51.148;13.738;2023-02-27T17:06:52;3.60;99.90
25250;DHT22;13201;51.148;13.738;2023-02-27T17:09:18;3.60;99.90
25250;DHT22;13201;51.148;13.738;2023-02-27T17:11:43;3.60;99.90
25250;DHT22;13201;51.148;13.738;2023-02-27T17:14:09;3.70;99.90
25250;DHT22;13201;51.148;13.738;2023-02-27T17:16:35;3.60;99.90
25250;DHT22;13201;51.148;13.738;2023-02-27T17:19:00;3.70;99.90
25250;DHT22;13201;51.148;13.738;2023-02-27T17:21:26;3.60;99.90
25250;DHT22;13201;51.148;13.738;2023-02-27T17:23:52;3.70;99.90
25250;DHT22;13201;51.148;13.738;2023-02-27T17:26:18;3.50;99.90
25250;DHT22;13201;51.148;13.738;2023-02-27T17:28:43;3.40;99.90
25250;DHT22;13201;51.148;13.738;2023-02-27T17:31:11;3.40;99.90
25250;DHT22;13201;51.148;13.738;2023-02-27T17:33:37;3.50;99.90
25250;DHT22;13201;51.148;13.738;2023-02-27T17:36:05;3.10;99.90
25250;DHT22;13201;51.148;13.738;2023-02-27T17:38:31;3.30;99.90
25250;DHT22;13201;51.148;13.738;2023-02-27T17:40:57;3.40;99.90
25250;DHT22;13201;51.148;13.738;2023-02-27T17:43:22;3.40;99.90
25250;DHT22;13201;51.148;13.738;2023-02-27T17:45:48;3.20;99.90
25250;DHT22;13201;51.148;13.738;2023-02-27T17:48:14;3.20;99.90
25250;DHT22;13201;51.148;13.738;2023-02-27T17:50:39;3.30;99.90
25250;DHT22;13201;51.148;13.738;2023-02-27T17:53:05;3.40;99.90
25250;DHT22;13201;51.148;13.738;2023-02-27T17:55:34;3.30;99.90
25250;DHT22;13201;51.148;13.738;2023-02-27T17:57:59;3.30;99.90
25250;DHT22;13201;51.148;13.738;2023-02-27T18:00:25;3.20;99.90
25250;DHT22;13201;51.148;13.738;2023-02-27T18:02:51;3.20;99.90
25250;DHT22;13201;51.148;13.738;2023-02-27T18:05:17;3.10;99.90
25250;DHT22;13201;51.148;13.738;2023-02-27T18:07:42;3.10;99.90
25250;DHT22;13201;51.148;13.738;2023-02-27T18:10:09;3.10;99.90
25250;DHT22;13201;51.148;13.738;2023-02-27T18:12:35;3.10;99.90
25250;DHT22;13201;51.148;13.738;2023-02-27T18:15:02;3.10;99.90
25250;DHT22;13201;51.148;13.738;2023-02-27T18:17:28;2.90;99.90
25250;DHT22;13201;51.148;13.738;2023-02-27T18:19:54;2.90;99.90
25250;DHT22;13201;51.148;13.738;2023-02-27T18:22:20;3.00;99.90
25250;DHT22;13201;51.148;13.738;2023-02-27T18:24:47;2.90;99.90
25250;DHT22;13201;51.148;13.738;2023-02-27T18:27:13;2.70;99.90
25250;DHT22;13201;51.148;13.738;2023-02-27T18:29:39;2.70;99.90
25250;DHT22;13201;51.148;13.738;2023-02-27T18:32:07;2.70;99.90
25250;DHT22;13201;51.148;13.738;2023-02-27T18:34:32;2.70;99.90
25250;DHT22;13201;51.148;13.738;2023-02-27T18:36:58;2.80;99.90
25250;DHT22;13201;51.148;13.738;2023-02-27T18:39:24;2.60;99.90
25250;DHT22;13201;51.148;13.738;2023-02-27T18:41:49;2.80;99.90
25250;DHT22;13201;51.148;13.738;2023-02-27T18:44:15;2.80;99.90
25250;DHT22;13201;51.148;13.738;2023-02-27T18:46:41;2.80;99.90
25250;DHT22;13201;51.148;13.738;2023-02-27T18:49:06;2.80;99.90
25250;DHT22;13201;51.148;13.738;2023-02-27T18:51:32;2.70;99.90
25250;DHT22;13201;51.148;13.738;2023-02-27T18:53:58;2.70;99.90
25250;DHT22;13201;51.148;13.738;2023-02-27T18:56:26;2.70;99.90
25250;DHT22;13201;51.148;13.738;2023-02-27T18:58:56;2.70;99.90
25250;DHT22;13201;51.148;13.738;2023-02-27T19:01:28;2.70;99.90
25250;DHT22;13201;51.148;13.738;2023-02-27T19:03:54;2.60;99.90